ラパス の空港の天気 - METARとTAF

エル・アルト国際空港 ( SLLP / LPB ) - ボリビア ラパス
飛行場実況気象(Metar)
観測時間05/28 06:00 BOT (05/28 10:00 UTC)
風向・風速不定 1m/s
視程10km以上
天気現象
なし
気温-1℃
湿度55%
気圧1036hPa
METARSLLP 281000Z VRB02KT 9999 NSC M01/M09 Q1036
過去の天気等 Google飛行場航空写真 Wunderground天気予報

過去48時間のMETAR

飛行場予報(TAF)
発表時間: 5/28 00:00 BOT (5/28 04:00 UTC)
予報対象時間: 28日2時 BOT ~ 29日2時 BOT
風向・風速北 3m/s
視程10km以上
なし
28日9時 BOT ~ 28日12時 BOT に徐々に
風向・風速西 6m/s
28日19時 BOT ~ 28日21時 BOT に徐々に
風向・風速東 3m/s
TAF SLLP 280400Z 2806/2906 36005KT 9999 NSC TX16/2819Z TNM05/2811Z
BECMG 2813/2816 26012KT
BECMG 2823/2901 08006KT